sensor_id;sensor_type;location;lat;lon;timestamp;pressure;altitude;pressure_sealevel;temperature;humidity
9235;BME280;4652;42.716;23.218;2023-04-27T00:03:18;94510.28;;;7.52;70.08
9235;BME280;4652;42.716;23.218;2023-04-27T00:10:01;94508.78;;;7.36;70.50
9235;BME280;4652;42.716;23.218;2023-04-27T00:16:43;94515.31;;;7.20;71.92
9235;BME280;4652;42.716;23.218;2023-04-27T00:23:25;94520.69;;;7.10;72.93
9235;BME280;4652;42.716;23.218;2023-04-27T00:30:09;94530.06;;;7.07;73.22
9235;BME280;4652;42.716;23.218;2023-04-27T00:36:51;94509.53;;;6.88;73.19
9235;BME280;4652;42.716;23.218;2023-04-27T00:43:40;94518.69;;;6.82;74.76
9235;BME280;4652;42.716;23.218;2023-04-27T00:50:26;94520.03;;;6.79;75.34
9235;BME280;4652;42.716;23.218;2023-04-27T00:57:09;94527.53;;;6.72;76.60
9235;BME280;4652;42.716;23.218;2023-04-27T01:08:07;94534.53;;;6.48;78.60
9235;BME280;4652;42.716;23.218;2023-04-27T01:14:49;94534.81;;;6.41;80.00
9235;BME280;4652;42.716;23.218;2023-04-27T01:21:31;94535.34;;;6.43;80.65
9235;BME280;4652;42.716;23.218;2023-04-27T01:28:14;94540.13;;;6.46;79.64
9235;BME280;4652;42.716;23.218;2023-04-27T01:34:56;94542.53;;;6.53;80.80
9235;BME280;4652;42.716;23.218;2023-04-27T01:41:38;94516.13;;;6.21;79.98
9235;BME280;4652;42.716;23.218;2023-04-27T01:48:21;94535.88;;;6.45;80.07
9235;BME280;4652;42.716;23.218;2023-04-27T01:55:04;94546.28;;;6.52;80.97
9235;BME280;4652;42.716;23.218;2023-04-27T02:01:46;94553.00;;;6.44;80.31
9235;BME280;4652;42.716;23.218;2023-04-27T02:08:29;94544.97;;;6.39;81.41
9235;BME280;4652;42.716;23.218;2023-04-27T02:15:11;94554.34;;;6.42;85.57
9235;BME280;4652;42.716;23.218;2023-04-27T02:21:53;94573.31;;;6.35;85.80
9235;BME280;4652;42.716;23.218;2023-04-27T02:28:37;94568.00;;;6.20;89.24
9235;BME280;4652;42.716;23.218;2023-04-27T02:35:19;94569.59;;;6.06;92.86
9235;BME280;4652;42.716;23.218;2023-04-27T02:42:01;94577.59;;;5.91;91.25
9235;BME280;4652;42.716;23.218;2023-04-27T02:48:45;94575.47;;;5.93;92.74
9235;BME280;4652;42.716;23.218;2023-04-27T02:55:27;94584.00;;;6.00;89.73
9235;BME280;4652;42.716;23.218;2023-04-27T03:02:09;94582.44;;;6.09;85.71
9235;BME280;4652;42.716;23.218;2023-04-27T03:08:53;94582.16;;;6.06;83.07
9235;BME280;4652;42.716;23.218;2023-04-27T03:15:35;94592.84;;;6.06;81.64
9235;BME280;4652;42.716;23.218;2023-04-27T03:22:17;94598.44;;;5.94;83.64
9235;BME280;4652;42.716;23.218;2023-04-27T03:29:00;94603.81;;;5.99;86.58
9235;BME280;4652;42.716;23.218;2023-04-27T03:35:42;94613.09;;;5.76;89.11
9235;BME280;4652;42.716;23.218;2023-04-27T03:42:24;94617.63;;;5.76;89.60
9235;BME280;4652;42.716;23.218;2023-04-27T03:49:07;94619.47;;;5.60;88.14
9235;BME280;4652;42.716;23.218;2023-04-27T03:55:49;94632.03;;;5.70;89.32
9235;BME280;4652;42.716;23.218;2023-04-27T04:02:31;94631.22;;;5.74;83.16
9235;BME280;4652;42.716;23.218;2023-04-27T04:09:14;94649.47;;;5.98;85.52
9235;BME280;4652;42.716;23.218;2023-04-27T04:16:03;94646.84;;;6.18;85.51
9235;BME280;4652;42.716;23.218;2023-04-27T04:22:45;94666.66;;;6.42;84.74
9235;BME280;4652;42.716;23.218;2023-04-27T04:29:29;94656.75;;;6.47;80.27
9235;BME280;4652;42.716;23.218;2023-04-27T04:36:11;94665.84;;;6.77;79.78
9235;BME280;4652;42.716;23.218;2023-04-27T04:42:53;94664.72;;;7.08;77.31
9235;BME280;4652;42.716;23.218;2023-04-27T04:49:36;94672.16;;;7.41;73.34
9235;BME280;4652;42.716;23.218;2023-04-27T04:56:18;94681.38;;;7.79;71.70
9235;BME280;4652;42.716;23.218;2023-04-27T05:03:00;94681.50;;;8.57;67.23
9235;BME280;4652;42.716;23.218;2023-04-27T05:09:43;94690.59;;;8.95;65.74
9235;BME280;4652;42.716;23.218;2023-04-27T05:16:25;94696.38;;;9.07;63.10
9235;BME280;4652;42.716;23.218;2023-04-27T05:23:07;94695.28;;;8.79;63.71
9235;BME280;4652;42.716;23.218;2023-04-27T05:29:50;94709.03;;;8.72;64.36
9235;BME280;4652;42.716;23.218;2023-04-27T05:36:32;94716.31;;;8.18;66.61
9235;BME280;4652;42.716;23.218;2023-04-27T05:43:15;94710.91;;;8.23;67.90
9235;BME280;4652;42.716;23.218;2023-04-27T05:49:58;94714.16;;;8.30;67.35
9235;BME280;4652;42.716;23.218;2023-04-27T05:56:40;94715.28;;;8.14;66.17
9235;BME280;4652;42.716;23.218;2023-04-27T06:03:22;94717.47;;;8.56;66.13
9235;BME280;4652;42.716;23.218;2023-04-27T06:10:07;94710.16;;;8.66;64.02
9235;BME280;4652;42.716;23.218;2023-04-27T06:16:49;94713.22;;;9.46;61.80
9235;BME280;4652;42.716;23.218;2023-04-27T06:23:31;94704.19;;;11.01;57.94
9235;BME280;4652;42.716;23.218;2023-04-27T06:30:15;94694.69;;;11.36;56.59
9235;BME280;4652;42.716;23.218;2023-04-27T06:36:57;94669.63;;;16.51;49.46
9235;BME280;4652;42.716;23.218;2023-04-27T06:43:39;94675.69;;;19.88;41.20
9235;BME280;4652;42.716;23.218;2023-04-27T06:50:22;94678.59;;;15.84;45.64
9235;BME280;4652;42.716;23.218;2023-04-27T06:57:04;94680.13;;;16.02;46.11
9235;BME280;4652;42.716;23.218;2023-04-27T07:08:06;94681.09;;;14.48;47.79
9235;BME280;4652;42.716;23.218;2023-04-27T07:14:48;94686.22;;;13.63;49.87
9235;BME280;4652;42.716;23.218;2023-04-27T07:21:31;94668.53;;;15.12;47.08
9235;BME280;4652;42.716;23.218;2023-04-27T07:28:14;94678.16;;;16.11;46.03
9235;BME280;4652;42.716;23.218;2023-04-27T07:34:56;94678.88;;;14.33;47.64
9235;BME280;4652;42.716;23.218;2023-04-27T07:41:39;94667.25;;;14.76;47.12
9235;BME280;4652;42.716;23.218;2023-04-27T07:48:22;94679.53;;;14.82;48.06
9235;BME280;4652;42.716;23.218;2023-04-27T07:55:05;94684.03;;;13.73;48.91
9235;BME280;4652;42.716;23.218;2023-04-27T08:01:47;94680.34;;;12.94;50.39
9235;BME280;4652;42.716;23.218;2023-04-27T08:08:30;94690.66;;;13.59;50.08
9235;BME280;4652;42.716;23.218;2023-04-27T08:15:13;94676.94;;;14.42;49.86
9235;BME280;4652;42.716;23.218;2023-04-27T08:21:55;94679.84;;;14.89;48.74
9235;BME280;4652;42.716;23.218;2023-04-27T08:28:38;94677.91;;;13.98;50.22
9235;BME280;4652;42.716;23.218;2023-04-27T08:35:21;94677.78;;;14.68;48.37
9235;BME280;4652;42.716;23.218;2023-04-27T08:42:09;94687.97;;;15.32;46.31
9235;BME280;4652;42.716;23.218;2023-04-27T08:48:53;94664.22;;;15.03;47.66
9235;BME280;4652;42.716;23.218;2023-04-27T08:55:36;94669.34;;;14.87;49.31
9235;BME280;4652;42.716;23.218;2023-04-27T09:02:18;94680.47;;;15.54;46.62
9235;BME280;4652;42.716;23.218;2023-04-27T09:09:02;94660.06;;;16.74;47.01
9235;BME280;4652;42.716;23.218;2023-04-27T09:15:47;94659.59;;;16.92;44.99
9235;BME280;4652;42.716;23.218;2023-04-27T09:22:30;94654.81;;;15.81;45.56
9235;BME280;4652;42.716;23.218;2023-04-27T09:29:13;94669.19;;;16.49;45.39
9235;BME280;4652;42.716;23.218;2023-04-27T09:35:56;94649.72;;;16.09;44.78
9235;BME280;4652;42.716;23.218;2023-04-27T09:42:39;94657.41;;;16.36;44.87
9235;BME280;4652;42.716;23.218;2023-04-27T09:49:23;94652.38;;;16.46;43.96
9235;BME280;4652;42.716;23.218;2023-04-27T09:56:16;94626.44;;;16.58;43.51
9235;BME280;4652;42.716;23.218;2023-04-27T10:03:14;94576.91;;;15.73;44.09
9235;BME280;4652;42.716;23.218;2023-04-27T10:10:01;94638.78;;;15.33;46.13
9235;BME280;4652;42.716;23.218;2023-04-27T14:25:16;94677.19;;;14.15;44.57
9235;BME280;4652;42.716;23.218;2023-04-27T14:31:58;94675.94;;;14.21;44.90
9235;BME280;4652;42.716;23.218;2023-04-27T14:38:40;94685.59;;;14.05;45.04
9235;BME280;4652;42.716;23.218;2023-04-27T14:45:23;94697.56;;;13.73;46.50
9235;BME280;4652;42.716;23.218;2023-04-27T14:52:05;94700.97;;;13.57;46.39
9235;BME280;4652;42.716;23.218;2023-04-27T14:58:47;94715.34;;;13.35;45.23
9235;BME280;4652;42.716;23.218;2023-04-27T15:05:30;94712.22;;;13.41;46.29
9235;BME280;4652;42.716;23.218;2023-04-27T15:12:12;94713.94;;;13.15;46.03
9235;BME280;4652;42.716;23.218;2023-04-27T15:18:54;94720.69;;;12.90;47.07
9235;BME280;4652;42.716;23.218;2023-04-27T15:25:38;94724.81;;;12.88;46.96
9235;BME280;4652;42.716;23.218;2023-04-27T15:32:20;94726.19;;;12.99;48.05
9235;BME280;4652;42.716;23.218;2023-04-27T15:39:04;94727.59;;;12.96;46.96
9235;BME280;4652;42.716;23.218;2023-04-27T15:45:47;94735.38;;;12.98;47.26
9235;BME280;4652;42.716;23.218;2023-04-27T15:52:29;94744.63;;;12.97;46.43
9235;BME280;4652;42.716;23.218;2023-04-27T15:59:11;94744.38;;;12.71;48.57
9235;BME280;4652;42.716;23.218;2023-04-27T16:05:54;94752.84;;;12.56;47.57
9235;BME280;4652;42.716;23.218;2023-04-27T16:12:37;94753.06;;;12.05;49.39
9235;BME280;4652;42.716;23.218;2023-04-27T16:19:18;94762.63;;;11.84;50.83
9235;BME280;4652;42.716;23.218;2023-04-27T16:26:02;94771.56;;;11.66;51.60
9235;BME280;4652;42.716;23.218;2023-04-27T16:32:44;94783.47;;;11.46;52.19
9235;BME280;4652;42.716;23.218;2023-04-27T16:39:26;94775.31;;;11.19;52.58
9235;BME280;4652;42.716;23.218;2023-04-27T16:46:09;94793.53;;;11.08;53.28
9235;BME280;4652;42.716;23.218;2023-04-27T16:52:52;94804.22;;;11.13;53.51
9235;BME280;4652;42.716;23.218;2023-04-27T16:59:34;94803.50;;;10.89;53.19
9235;BME280;4652;42.716;23.218;2023-04-27T17:06:17;94817.78;;;10.71;54.48
9235;BME280;4652;42.716;23.218;2023-04-27T17:13:00;94817.97;;;10.75;55.11
9235;BME280;4652;42.716;23.218;2023-04-27T17:19:42;94826.19;;;10.65;55.55
9235;BME280;4652;42.716;23.218;2023-04-27T17:26:25;94827.81;;;10.42;55.67
9235;BME280;4652;42.716;23.218;2023-04-27T17:33:07;94833.72;;;10.44;56.02
9235;BME280;4652;42.716;23.218;2023-04-27T17:39:49;94843.94;;;10.23;57.14
9235;BME280;4652;42.716;23.218;2023-04-27T17:46:34;94838.88;;;10.17;57.91
9235;BME280;4652;42.716;23.218;2023-04-27T17:53:15;94866.88;;;10.16;58.02
9235;BME280;4652;42.716;23.218;2023-04-27T17:59:57;94876.22;;;10.23;58.52
9235;BME280;4652;42.716;23.218;2023-04-27T18:06:41;94898.41;;;10.10;57.93
9235;BME280;4652;42.716;23.218;2023-04-27T18:13:23;94903.75;;;10.15;58.64
9235;BME280;4652;42.716;23.218;2023-04-27T18:20:07;94910.59;;;9.97;58.36
9235;BME280;4652;42.716;23.218;2023-04-27T18:26:51;94921.38;;;9.97;58.60
9235;BME280;4652;42.716;23.218;2023-04-27T18:33:32;94933.69;;;10.03;59.25
9235;BME280;4652;42.716;23.218;2023-04-27T18:40:17;94940.63;;;10.10;59.37
9235;BME280;4652;42.716;23.218;2023-04-27T18:47:01;94935.34;;;9.99;59.05
9235;BME280;4652;42.716;23.218;2023-04-27T18:53:43;94958.19;;;10.02;59.02
9235;BME280;4652;42.716;23.218;2023-04-27T19:08:07;94968.75;;;9.55;59.60
9235;BME280;4652;42.716;23.218;2023-04-27T19:14:49;94978.66;;;9.59;60.37
9235;BME280;4652;42.716;23.218;2023-04-27T19:21:31;94984.94;;;9.50;60.74
9235;BME280;4652;42.716;23.218;2023-04-27T19:28:16;94985.91;;;9.15;61.30
9235;BME280;4652;42.716;23.218;2023-04-27T19:34:59;94967.78;;;8.81;61.49
9235;BME280;4652;42.716;23.218;2023-04-27T19:41:41;94992.19;;;8.90;63.14
9235;BME280;4652;42.716;23.218;2023-04-27T19:48:24;95004.25;;;8.93;65.35
9235;BME280;4652;42.716;23.218;2023-04-27T19:55:07;95002.44;;;8.73;68.14
9235;BME280;4652;42.716;23.218;2023-04-27T20:01:49;94983.44;;;8.49;70.13
9235;BME280;4652;42.716;23.218;2023-04-27T20:08:32;95011.38;;;8.38;72.43
9235;BME280;4652;42.716;23.218;2023-04-27T20:15:14;95004.38;;;8.07;74.24
9235;BME280;4652;42.716;23.218;2023-04-27T20:21:57;95002.25;;;7.79;74.97
9235;BME280;4652;42.716;23.218;2023-04-27T20:28:40;94994.66;;;7.35;77.07
9235;BME280;4652;42.716;23.218;2023-04-27T20:35:22;95018.53;;;7.42;75.98
9235;BME280;4652;42.716;23.218;2023-04-27T20:42:04;95011.53;;;7.36;76.60
9235;BME280;4652;42.716;23.218;2023-04-27T20:48:48;95020.88;;;7.23;78.22
9235;BME280;4652;42.716;23.218;2023-04-27T20:55:30;95022.75;;;7.18;78.26
9235;BME280;4652;42.716;23.218;2023-04-27T21:02:12;95026.97;;;7.03;78.54
9235;BME280;4652;42.716;23.218;2023-04-27T21:08:56;95032.00;;;6.90;78.19
9235;BME280;4652;42.716;23.218;2023-04-27T21:15:39;94991.97;;;6.63;81.57
9235;BME280;4652;42.716;23.218;2023-04-27T21:22:21;95012.63;;;6.73;79.33
9235;BME280;4652;42.716;23.218;2023-04-27T21:29:04;95018.47;;;6.60;80.18
9235;BME280;4652;42.716;23.218;2023-04-27T21:35:47;95028.13;;;6.24;82.88
9235;BME280;4652;42.716;23.218;2023-04-27T21:42:29;95021.88;;;6.13;83.72
9235;BME280;4652;42.716;23.218;2023-04-27T21:49:12;95031.41;;;5.99;84.06
9235;BME280;4652;42.716;23.218;2023-04-27T21:55:55;95024.88;;;5.85;85.05
9235;BME280;4652;42.716;23.218;2023-04-27T22:02:37;95039.69;;;5.71;87.36
9235;BME280;4652;42.716;23.218;2023-04-27T22:09:23;95044.31;;;5.54;88.75
9235;BME280;4652;42.716;23.218;2023-04-27T22:16:05;95047.53;;;5.56;87.28
9235;BME280;4652;42.716;23.218;2023-04-27T22:22:47;95042.75;;;5.58;86.25
9235;BME280;4652;42.716;23.218;2023-04-27T22:29:30;95033.34;;;5.77;82.56
9235;BME280;4652;42.716;23.218;2023-04-27T22:36:13;95027.13;;;5.71;83.25
9235;BME280;4652;42.716;23.218;2023-04-27T22:42:55;95046.63;;;5.72;84.09
9235;BME280;4652;42.716;23.218;2023-04-27T22:49:38;95026.00;;;5.36;85.94
9235;BME280;4652;42.716;23.218;2023-04-27T22:56:21;95040.88;;;5.31;85.16
9235;BME280;4652;42.716;23.218;2023-04-27T23:03:03;95029.53;;;5.19;87.16
9235;BME280;4652;42.716;23.218;2023-04-27T23:09:47;94973.84;;;4.80;87.07
9235;BME280;4652;42.716;23.218;2023-04-27T23:16:29;95029.19;;;5.11;87.78
9235;BME280;4652;42.716;23.218;2023-04-27T23:23:11;95030.47;;;5.08;86.87
9235;BME280;4652;42.716;23.218;2023-04-27T23:29:54;95023.72;;;5.01;88.50
9235;BME280;4652;42.716;23.218;2023-04-27T23:36:36;95021.31;;;4.99;88.63
9235;BME280;4652;42.716;23.218;2023-04-27T23:43:18;95025.94;;;4.87;89.27
9235;BME280;4652;42.716;23.218;2023-04-27T23:50:02;95029.97;;;4.68;89.13
9235;BME280;4652;42.716;23.218;2023-04-27T23:56:44;94988.28;;;4.62;89.36
